September 29, 2022

Time Code Weather Temp. Visibility Ceiling Wind METAR/SPECI
10:50
V
13 °C 10 km+ 5,000 ft 030° 030° 10 kt METAR EGXP 290950Z AUTO 03010KT 9999 // BKN050/// 13/10 Q1003
09:50
V
13 °C 10 km+ - 040° 040° 6 kt METAR EGXP 290850Z AUTO 04006KT 9999 // NCD 13/11 Q1003

September 28, 2022

Time Code Weather Temp. Visibility Ceiling Wind METAR/SPECI
18:50
V
11 °C 10 km+ - 310° 310° 9 kt METAR EGXP 281750Z AUTO 31009KT 9999 // NCD 11/04 Q0998
17:50
V
12 °C 10 km+ - 290° 290° 9 kt METAR EGXP 281650Z AUTO 29009KT 9999 // FEW070/// 12/03 Q0998
16:50
V
14 °C 10 km+ - 300° 300° 11 kt METAR EGXP 281550Z AUTO 30011KT 9999 // SCT045/// 14/05 Q0998
15:50
V
13 °C 10 km+ 6,000 ft 320° 320° 8 kt METAR EGXP 281450Z AUTO 32008KT 9999 // BKN060/// 13/06 Q0999
14:50
V
15 °C 10 km+ - 340° 340° 8 kt METAR EGXP 281350Z AUTO 34008KT 9999 // SCT060/// 15/05 Q0999
13:50
V
13 °C 10 km+ - 320° 320° 10 kt METAR EGXP 281250Z AUTO 32010KT 9999 // FEW034/// SCT050/// 13/05 Q0999
12:50
V
13 °C 10 km+ - 330° 330° 12 kt METAR EGXP 281150Z AUTO 33012KT 9999 // FEW026/// 13/05 Q0999
11:50
V
13 °C 10 km+ - 360° 360° 12 kt METAR EGXP 281050Z AUTO 36012KT 9999 // FEW023/// 13/06 Q0999
10:50
V
11 °C 10 km+ 4,700 ft 320° 320° 13 kt METAR EGXP 280950Z AUTO 32013KT 9999 // BKN047/// 11/07 Q0999
09:50
V
10 °C 10 km+ 4,500 ft 320° 320° 12 kt METAR EGXP 280850Z AUTO 32012KT 9999 // BKN045/// 10/07 Q0999
08:50
V
9 °C 10 km+ 4,800 ft 310° 310° 12 kt METAR EGXP 280750Z AUTO 31012KT 9999 // FEW041/// BKN048/// 09/07 Q0999
07:50
V
6 °C 10 km+ 4,400 ft 300° 300° 11 kt METAR EGXP 280650Z AUTO 30011KT 9999 // BKN044/// 06/05 Q0998
06:50
V
6 °C 10 km+ - 300° 300° 11 kt METAR EGXP 280550Z AUTO 30011KT 9999 // NCD 06/05 Q0998
05:50
V
5 °C 10 km+ - 290° 290° 10 kt METAR EGXP 280450Z AUTO 29010KT 9999 // FEW042/// 05/04 Q0998
04:50
V
4 °C 10 km+ - 290° 290° 9 kt METAR EGXP 280350Z AUTO 29009KT 9999 // NCD 04/04 Q0998
03:50
V
4 °C 10 km+ - 280° 280° 7 kt METAR EGXP 280250Z AUTO 28007KT 9999 // NCD 04/04 Q0998
02:50
V
4 °C 10 km+ - 290° 290° 7 kt METAR EGXP 280150Z AUTO 29007KT 9999 // NCD 04/03 Q0998
01:50
V
6 °C 10 km+ - 310° 310° 9 kt METAR EGXP 280050Z AUTO 31009KT 9999 // NCD 06/05 Q0998
00:50
V
6 °C 10 km+ 4,400 ft 260° 260° 6 kt METAR EGXP 272350Z AUTO 26006KT 9999 // BKN044/// 06/05 Q0998

September 27, 2022

Time Code Weather Temp. Visibility Ceiling Wind METAR/SPECI
23:50
V
5 °C 10 km+ - 280° 280° 7 kt METAR EGXP 272250Z AUTO 28007KT 9999 // FEW045/// 05/04 Q0998
22:50
V
6 °C 10 km+ - 300° 300° 7 kt METAR EGXP 272150Z AUTO 30007KT 9999 // NCD 06/04 Q0998
21:50
V
8 °C 10 km+ 4,500 ft 290° 290° 4 kt METAR EGXP 272050Z AUTO 29004KT 9999 // FEW035/// BKN045/// 08/06 Q0998
20:50
V
8 °C 10 km+ 5,000 ft 280° 280° 5 kt METAR EGXP 271950Z AUTO 28005KT 9999 // SCT041/// BKN050/// 08/06 Q0998
19:50
V
10 °C 10 km+ 5,000 ft 300° 300° 11 kt METAR EGXP 271850Z AUTO 30011KT 9999 // FEW039/// BKN050/// 10/05 Q0997
18:50
V
11 °C 10 km+ - 290° 290° 9 kt METAR EGXP 271750Z AUTO 29009KT 9999 // SCT050/// 11/03 Q0997
17:50
V
13 °C 10 km+ - 300° 300° 8 kt METAR EGXP 271650Z AUTO 30008KT 9999 // NCD 13/03 Q0996
16:50
V
13 °C 10 km+ - 330° 330° 7 kt METAR EGXP 271550Z AUTO 33007KT 9999 // SCT060/// 13/03 Q0997
15:50
V
14 °C 10 km+ 4,900 ft 300° 300° 12 - 23 kt METAR EGXP 271450Z 30012G23KT 9999 BKN049 14/03 Q0997 BLU
14:50
V
13 °C 10 km+ - 320° 320° 13 kt METAR EGXP 271350Z 32013KT 9999 SCT047 13/02 Q0997 BLU
13:50
V
14 °C 10 km+ - 300° 300° 12 kt METAR EGXP 271250Z 30012KT 9999 FEW030 14/02 Q0997 RMK CC BLU
12:50
V
14 °C 10 km+ - 310° 310° 13 kt METAR EGXP 271150Z 31013KT 9999 FEW037 14/03 Q0998 BLU
11:50
V
13 °C 10 km+ 4,100 ft 310° 310° 14 kt METAR EGXP 271050Z 31014KT 9999 SCT034 BKN041 13/04 Q0998 RMK CC BLU
Older data

We and third parties follow your internet behavior on our website with cookies. If you continue, we assume you agree with our cookie policy. Learn more